createdAt,value
2019-02-27T00:00:38.275Z,6.10
2019-02-27T00:03:07.391Z,6.10
2019-02-27T00:05:36.095Z,6.20
2019-02-27T00:08:04.789Z,6.20
2019-02-27T00:10:33.481Z,6.20
2019-02-27T00:13:02.239Z,6.20
2019-02-27T00:15:31.540Z,6.20
2019-02-27T00:18:00.222Z,6.20
2019-02-27T00:20:28.863Z,6.20
2019-02-27T00:22:57.511Z,6.20
2019-02-27T00:25:26.218Z,6.10
2019-02-27T00:27:54.863Z,6.10
2019-02-27T00:30:24.019Z,6.10
2019-02-27T00:32:52.703Z,6.00
2019-02-27T00:35:21.360Z,6.00
2019-02-27T00:37:52.038Z,6.00
2019-02-27T00:40:20.499Z,5.90
2019-02-27T00:42:49.152Z,5.90
2019-02-27T00:45:17.855Z,5.80
2019-02-27T00:47:46.845Z,5.80
2019-02-27T00:50:15.496Z,5.90
2019-02-27T00:52:44.259Z,5.90
2019-02-27T00:55:12.959Z,5.90
2019-02-27T00:57:41.717Z,5.90
2019-02-27T01:00:13.685Z,5.90
2019-02-27T01:02:42.836Z,5.90
2019-02-27T01:05:11.931Z,6.00
2019-02-27T01:07:40.676Z,6.00
2019-02-27T01:10:11.949Z,6.00
2019-02-27T01:12:40.141Z,6.00
2019-02-27T01:15:10.705Z,5.80
2019-02-27T01:17:39.839Z,5.70
2019-02-27T01:20:11.172Z,5.50
2019-02-27T01:22:39.231Z,5.40
2019-02-27T01:25:08.072Z,5.30
2019-02-27T01:27:38.078Z,5.30
2019-02-27T01:30:08.288Z,5.30
2019-02-27T01:32:37.403Z,5.30
2019-02-27T01:35:06.789Z,5.20
2019-02-27T01:37:35.472Z,5.10
2019-02-27T01:40:04.881Z,5.00
2019-02-27T01:42:33.532Z,4.90
2019-02-27T01:45:03.297Z,5.00
2019-02-27T01:47:35.675Z,5.00
2019-02-27T01:50:02.625Z,5.00
2019-02-27T01:52:33.981Z,5.00
2019-02-27T01:55:01.734Z,4.90
2019-02-27T01:57:30.413Z,4.80
2019-02-27T01:59:59.281Z,4.90
2019-02-27T02:02:27.927Z,5.00
2019-02-27T02:04:56.559Z,5.00
2019-02-27T02:07:25.207Z,5.00
2019-02-27T02:09:55.038Z,5.00
2019-02-27T02:12:27.460Z,5.00
2019-02-27T02:15:20.191Z,4.90
2019-02-27T02:18:33.012Z,4.80
2019-02-27T02:21:23.562Z,4.80
2019-02-27T02:24:35.203Z,4.80
2019-02-27T02:27:39.104Z,4.70
2019-02-27T02:30:46.189Z,4.70
2019-02-27T02:33:40.491Z,4.40
2019-02-27T02:36:34.780Z,4.10
2019-02-27T02:39:40.036Z,4.00
2019-02-27T02:42:34.608Z,4.00
2019-02-27T02:45:39.764Z,3.90
2019-02-27T02:48:36.916Z,3.90
2019-02-27T02:51:53.521Z,3.80
2019-02-27T02:54:49.260Z,3.70
2019-02-27T02:57:41.377Z,3.50
2019-02-27T03:00:26.799Z,3.50
2019-02-27T03:03:15.328Z,3.60
2019-02-27T03:06:25.756Z,3.60
2019-02-27T03:09:19.874Z,3.50
2019-02-27T03:12:13.105Z,3.50
2019-02-27T03:15:28.789Z,3.60
2019-02-27T03:18:14.685Z,3.60
2019-02-27T03:20:51.753Z,3.60
2019-02-27T03:23:52.198Z,3.60
2019-02-27T03:26:38.388Z,3.50
2019-02-27T03:29:40.408Z,3.50
2019-02-27T03:32:43.234Z,3.50
2019-02-27T03:35:30.618Z,3.50
2019-02-27T03:38:13.488Z,3.50
2019-02-27T03:41:03.482Z,3.40
2019-02-27T03:43:46.097Z,3.40
2019-02-27T03:46:42.051Z,3.50
2019-02-27T03:49:43.141Z,3.50
2019-02-27T03:52:51.044Z,3.50
2019-02-27T03:55:48.240Z,3.50
2019-02-27T03:59:05.498Z,3.50
2019-02-27T04:02:10.668Z,3.60
2019-02-27T04:05:07.653Z,3.60
2019-02-27T04:08:17.588Z,3.60
2019-02-27T04:10:46.261Z,3.60
2019-02-27T04:13:14.908Z,3.60
2019-02-27T04:15:43.557Z,3.60
2019-02-27T04:18:10.999Z,3.60
2019-02-27T04:20:39.913Z,3.50
2019-02-27T04:23:12.554Z,3.60
2019-02-27T04:25:39.240Z,3.70
2019-02-27T04:28:08.171Z,3.70
2019-02-27T04:30:36.828Z,3.70
2019-02-27T04:33:05.596Z,3.70
2019-02-27T04:35:34.436Z,3.70
2019-02-27T04:38:03.277Z,3.70
2019-02-27T04:40:32.264Z,3.60
2019-02-27T04:43:00.917Z,3.50
2019-02-27T04:45:29.845Z,3.50
2019-02-27T04:47:58.792Z,3.50
2019-02-27T04:50:27.427Z,3.50
2019-02-27T04:52:58.069Z,3.50
2019-02-27T04:55:26.431Z,3.60
2019-02-27T04:57:55.697Z,3.50
2019-02-27T05:00:26.259Z,3.50
2019-02-27T05:02:55.087Z,3.50
2019-02-27T05:05:23.947Z,3.50
2019-02-27T05:07:54.315Z,3.50
2019-02-27T05:10:22.985Z,3.60
2019-02-27T05:12:51.635Z,3.60
2019-02-27T05:15:20.322Z,3.60
2019-02-27T05:17:49.618Z,3.50
2019-02-27T05:20:18.255Z,3.60
2019-02-27T05:22:46.897Z,3.60
2019-02-27T05:25:15.538Z,3.60
2019-02-27T05:27:44.185Z,3.60
2019-02-27T05:30:12.966Z,3.70
2019-02-27T05:32:42.123Z,3.70
2019-02-27T05:35:10.807Z,3.60
2019-02-27T05:37:39.477Z,3.60
2019-02-27T05:40:08.669Z,3.60
2019-02-27T05:42:39.099Z,3.60
2019-02-27T05:45:09.867Z,3.60
2019-02-27T05:47:38.545Z,3.60
2019-02-27T05:50:08.991Z,3.50
2019-02-27T05:52:37.720Z,3.50
2019-02-27T05:55:07.101Z,3.50
2019-02-27T05:57:35.916Z,3.40
2019-02-27T06:00:07.118Z,3.40
2019-02-27T06:02:35.723Z,3.40
2019-02-27T06:05:04.891Z,3.30
2019-02-27T06:07:33.779Z,3.40
2019-02-27T06:10:02.486Z,3.30
2019-02-27T06:12:31.215Z,3.30
2019-02-27T06:14:59.964Z,3.30
2019-02-27T06:17:28.595Z,3.30
2019-02-27T06:19:57.234Z,3.30
2019-02-27T06:22:27.252Z,3.30
2019-02-27T06:24:56.292Z,3.40
2019-02-27T06:27:24.941Z,3.40
2019-02-27T06:29:56.628Z,3.40
2019-02-27T06:32:24.339Z,3.40
2019-02-27T06:34:53.302Z,3.50
2019-02-27T06:37:21.967Z,3.50
2019-02-27T06:39:50.611Z,3.50
2019-02-27T06:42:19.363Z,3.50
2019-02-27T06:44:48.184Z,3.50
2019-02-27T06:47:16.801Z,3.60
2019-02-27T06:49:45.559Z,3.60
2019-02-27T06:52:14.207Z,3.70
2019-02-27T06:54:42.892Z,3.70
2019-02-27T06:57:11.577Z,3.80
2019-02-27T06:59:40.208Z,3.90
2019-02-27T07:02:08.871Z,3.90
2019-02-27T07:04:39.492Z,3.90
2019-02-27T07:07:08.151Z,3.90
2019-02-27T07:09:36.811Z,3.90
2019-02-27T07:12:07.097Z,4.00
2019-02-27T07:14:36.538Z,4.00
2019-02-27T07:17:06.399Z,4.10
2019-02-27T07:19:35.066Z,4.10
2019-02-27T07:22:06.304Z,4.20
2019-02-27T07:24:40.267Z,4.20
2019-02-27T07:27:08.946Z,4.20
2019-02-27T07:29:37.651Z,4.30
2019-02-27T07:32:06.315Z,4.40
2019-02-27T07:34:35.242Z,4.40
2019-02-27T07:37:03.870Z,4.50
2019-02-27T07:39:33.316Z,4.60
2019-02-27T07:42:02.123Z,4.70
2019-02-27T07:44:32.240Z,4.70
2019-02-27T07:47:01.551Z,4.80
2019-02-27T07:49:30.864Z,4.90
2019-02-27T07:52:00.223Z,5.00
2019-02-27T07:54:29.688Z,5.00
2019-02-27T07:56:58.492Z,5.20
2019-02-27T07:59:27.178Z,5.30
2019-02-27T08:01:55.853Z,5.40
2019-02-27T08:04:24.536Z,5.40
2019-02-27T08:06:53.211Z,5.50
2019-02-27T08:09:21.999Z,5.60
2019-02-27T08:11:50.660Z,5.70
2019-02-27T08:14:19.495Z,5.80
2019-02-27T08:16:48.229Z,5.80
2019-02-27T08:19:16.900Z,5.90
2019-02-27T08:21:45.580Z,6.00
2019-02-27T08:24:14.587Z,6.10
2019-02-27T08:26:43.277Z,6.20
2019-02-27T08:29:11.945Z,6.40
2019-02-27T08:31:40.588Z,6.40
2019-02-27T08:34:09.288Z,6.80
2019-02-27T08:36:38.003Z,6.80
2019-02-27T08:39:06.796Z,6.80
2019-02-27T08:41:35.486Z,6.90
2019-02-27T08:44:04.233Z,7.10
2019-02-27T08:46:34.045Z,7.10
2019-02-27T08:49:03.260Z,7.30
2019-02-27T08:51:31.914Z,7.40
2019-02-27T08:54:06.280Z,7.50
2019-02-27T08:56:34.986Z,7.60
2019-02-27T08:59:05.771Z,7.70
2019-02-27T09:01:34.213Z,7.80
2019-02-27T09:04:02.862Z,7.90
2019-02-27T09:06:31.788Z,8.00
2019-02-27T09:09:00.460Z,8.10
2019-02-27T09:11:29.155Z,8.20
2019-02-27T09:13:58.157Z,8.40
2019-02-27T09:16:27.063Z,8.50
2019-02-27T09:18:55.963Z,8.60
2019-02-27T09:21:27.911Z,8.70
2019-02-27T09:23:55.364Z,8.80
2019-02-27T09:26:24.405Z,9.00
2019-02-27T09:28:53.220Z,9.00
2019-02-27T09:31:21.872Z,9.10
2019-02-27T09:33:53.013Z,9.20
2019-02-27T09:36:20.986Z,9.30
2019-02-27T09:38:49.639Z,9.40
2019-02-27T09:41:18.340Z,9.60
2019-02-27T09:43:47.009Z,9.70
2019-02-27T09:46:19.283Z,9.80
2019-02-27T09:48:46.064Z,10.00
2019-02-27T09:51:14.984Z,10.10
2019-02-27T09:53:43.700Z,10.20
2019-02-27T09:56:12.886Z,10.20
2019-02-27T09:58:45.044Z,10.40
2019-02-27T10:01:14.052Z,10.50
2019-02-27T10:03:42.887Z,10.50
2019-02-27T10:06:12.172Z,10.60
2019-02-27T10:08:40.987Z,10.70
2019-02-27T10:11:09.800Z,10.70
2019-02-27T10:13:38.629Z,10.80
2019-02-27T10:16:07.404Z,11.00
2019-02-27T10:18:36.115Z,11.20
2019-02-27T10:21:04.916Z,11.20
2019-02-27T10:23:33.585Z,11.40
2019-02-27T10:26:02.268Z,11.40
2019-02-27T10:28:30.910Z,11.50
2019-02-27T10:30:59.595Z,11.60
2019-02-27T10:33:28.229Z,11.60
2019-02-27T10:35:56.944Z,11.70
2019-02-27T10:38:26.308Z,11.90
2019-02-27T10:40:55.521Z,11.90
2019-02-27T10:43:24.271Z,12.00
2019-02-27T10:45:53.283Z,12.10
2019-02-27T10:48:21.931Z,12.30
2019-02-27T10:50:50.639Z,12.40
2019-02-27T10:53:19.287Z,12.50
2019-02-27T10:55:49.259Z,12.60
2019-02-27T10:58:18.337Z,12.70
2019-02-27T11:00:48.493Z,12.70
2019-02-27T11:03:17.148Z,13.00
2019-02-27T11:05:46.221Z,13.10
2019-02-27T11:08:14.960Z,13.20
2019-02-27T11:10:43.719Z,13.30
2019-02-27T11:13:12.395Z,13.40
2019-02-27T11:15:42.526Z,13.50
2019-02-27T11:18:11.531Z,13.80
2019-02-27T11:20:40.203Z,14.00
2019-02-27T11:23:08.920Z,14.30
2019-02-27T11:25:37.568Z,14.80
2019-02-27T11:28:06.345Z,15.40
2019-02-27T11:30:36.989Z,16.20
2019-02-27T11:33:05.983Z,18.00
2019-02-27T11:35:34.783Z,20.00
2019-02-27T11:38:03.665Z,21.80
2019-02-27T11:40:32.315Z,22.60
2019-02-27T11:43:01.232Z,23.30
2019-02-27T11:45:30.247Z,24.40
2019-02-27T11:47:58.940Z,25.30
2019-02-27T11:50:27.591Z,25.00
2019-02-27T11:53:01.796Z,25.00
2019-02-27T11:55:26.992Z,26.70
2019-02-27T11:57:55.696Z,28.00
2019-02-27T12:00:30.597Z,27.40
2019-02-27T12:02:59.783Z,28.70
2019-02-27T12:05:33.790Z,29.30
2019-02-27T12:07:59.354Z,29.30
2019-02-27T12:10:29.180Z,29.40
2019-02-27T12:13:00.831Z,30.30
2019-02-27T12:15:28.631Z,31.50
2019-02-27T12:18:00.464Z,31.40
2019-02-27T12:20:27.835Z,31.50
2019-02-27T12:22:56.525Z,29.90
2019-02-27T12:25:29.074Z,30.00
2019-02-27T12:27:56.602Z,30.10
2019-02-27T12:30:26.044Z,30.20
2019-02-27T12:32:56.744Z,30.00
2019-02-27T12:35:27.501Z,30.90
2019-02-27T12:37:56.304Z,30.30
2019-02-27T12:40:25.343Z,30.00
2019-02-27T12:42:54.269Z,31.20
2019-02-27T12:45:25.792Z,32.90
2019-02-27T12:47:54.876Z,33.30
2019-02-27T12:50:26.897Z,30.20
2019-02-27T12:52:54.561Z,32.20
2019-02-27T12:55:23.667Z,31.70
2019-02-27T12:57:53.107Z,32.10
2019-02-27T13:00:24.045Z,32.70
2019-02-27T13:02:52.723Z,33.90
2019-02-27T13:05:26.254Z,34.30
2019-02-27T13:07:52.087Z,34.80
2019-02-27T13:10:21.444Z,33.80
2019-02-27T13:12:51.904Z,33.00
2019-02-27T13:15:21.673Z,32.90
2019-02-27T13:17:50.476Z,33.20
2019-02-27T13:20:23.953Z,32.20
2019-02-27T13:22:52.672Z,32.40
2019-02-27T13:25:21.485Z,32.00
2019-02-27T13:27:51.910Z,32.20
2019-02-27T13:30:20.991Z,32.70
2019-02-27T13:32:49.865Z,33.30
2019-02-27T13:35:20.142Z,33.90
2019-02-27T13:37:49.373Z,34.20
2019-02-27T13:40:19.606Z,34.60
2019-02-27T13:42:52.394Z,35.50
2019-02-27T13:45:20.749Z,36.00
2019-02-27T13:47:49.414Z,35.50
2019-02-27T13:50:22.297Z,34.40
2019-02-27T13:52:50.624Z,34.50
2019-02-27T13:55:19.658Z,35.30
2019-02-27T13:57:48.292Z,34.50
2019-02-27T14:00:20.846Z,35.70
2019-02-27T14:02:49.810Z,35.60
2019-02-27T14:05:18.627Z,33.00
2019-02-27T14:07:47.275Z,33.70
2019-02-27T14:10:17.136Z,34.30
2019-02-27T14:12:47.035Z,34.10
2019-02-27T14:15:16.203Z,33.60
2019-02-27T14:17:44.853Z,34.80
2019-02-27T14:20:18.021Z,35.60
2019-02-27T14:22:46.674Z,34.70
2019-02-27T14:25:17.559Z,34.90
2019-02-27T14:27:52.367Z,35.00
2019-02-27T14:30:23.215Z,35.30
2019-02-27T14:32:52.192Z,34.10
2019-02-27T14:35:20.880Z,33.80
2019-02-27T14:37:50.236Z,33.80
2019-02-27T14:40:20.508Z,33.40
2019-02-27T14:42:54.033Z,33.20
2019-02-27T14:45:20.757Z,32.70
2019-02-27T14:47:49.433Z,33.40
2019-02-27T14:50:19.549Z,33.40
2019-02-27T14:52:49.957Z,32.80
2019-02-27T14:55:19.110Z,34.10
2019-02-27T14:57:51.078Z,33.50
2019-02-27T15:00:21.400Z,32.70
2019-02-27T15:02:52.038Z,32.00
2019-02-27T15:05:21.112Z,32.40
2019-02-27T15:07:53.399Z,32.90
2019-02-27T15:10:20.571Z,32.90
2019-02-27T15:12:53.855Z,31.80
2019-02-27T15:15:21.985Z,32.10
2019-02-27T15:17:51.305Z,33.00
2019-02-27T15:20:21.239Z,33.10
2019-02-27T15:22:52.577Z,32.60
2019-02-27T15:25:20.451Z,32.20
2019-02-27T15:27:49.131Z,32.10
2019-02-27T15:30:19.735Z,32.30
2019-02-27T15:32:48.400Z,32.70
2019-02-27T15:35:21.013Z,32.30
2019-02-27T15:37:48.293Z,32.30
2019-02-27T15:40:18.707Z,32.20
2019-02-27T15:42:47.615Z,31.80
2019-02-27T15:45:17.238Z,30.80
2019-02-27T15:47:45.943Z,30.20
2019-02-27T15:50:16.783Z,30.10
2019-02-27T15:52:45.596Z,29.00
2019-02-27T15:55:14.614Z,27.10
2019-02-27T15:57:43.372Z,25.70
2019-02-27T16:00:17.700Z,24.50
2019-02-27T16:02:45.051Z,23.60
2019-02-27T16:05:14.310Z,22.80
2019-02-27T16:07:48.343Z,22.20
2019-02-27T16:10:15.971Z,21.70
2019-02-27T16:12:44.739Z,21.00
2019-02-27T16:15:16.743Z,20.50
2019-02-27T16:17:44.636Z,20.10
2019-02-27T16:20:16.141Z,19.90
2019-02-27T16:22:45.179Z,19.60
2019-02-27T16:25:18.276Z,19.40
2019-02-27T16:27:46.856Z,19.30
2019-02-27T16:30:31.254Z,19.10
2019-02-27T16:32:56.515Z,18.90
2019-02-27T16:35:25.345Z,18.80
2019-02-27T16:37:57.583Z,18.70
2019-02-27T16:40:24.418Z,18.50
2019-02-27T16:42:53.173Z,18.40
2019-02-27T16:45:24.114Z,18.30
2019-02-27T16:47:54.005Z,18.20
2019-02-27T16:50:25.508Z,18.00
2019-02-27T16:52:54.650Z,17.90
2019-02-27T16:55:23.976Z,17.70
2019-02-27T16:57:56.527Z,17.60
2019-02-27T17:00:25.525Z,17.50
2019-02-27T17:02:56.876Z,17.40
2019-02-27T17:05:25.517Z,17.30
2019-02-27T17:07:57.376Z,17.20
2019-02-27T17:10:26.734Z,17.10
2019-02-27T17:12:55.456Z,16.90
2019-02-27T17:15:24.138Z,16.80
2019-02-27T17:17:53.379Z,16.70
2019-02-27T17:20:24.076Z,16.60
2019-02-27T17:22:53.027Z,16.50
2019-02-27T17:25:21.672Z,16.40
2019-02-27T17:27:51.862Z,16.40
2019-02-27T17:30:24.380Z,16.30
2019-02-27T17:32:53.237Z,16.20
2019-02-27T17:35:23.635Z,16.20
2019-02-27T17:37:52.543Z,16.00
2019-02-27T17:40:21.464Z,15.90
2019-02-27T17:42:52.994Z,15.90
2019-02-27T17:45:20.758Z,15.90
2019-02-27T17:47:49.548Z,15.80
2019-02-27T17:50:18.628Z,15.70
2019-02-27T17:52:48.924Z,15.70
2019-02-27T17:55:17.811Z,15.60
2019-02-27T17:57:46.634Z,15.60
2019-02-27T18:00:18.800Z,15.60
2019-02-27T18:02:47.890Z,15.50
2019-02-27T18:05:16.667Z,15.40
2019-02-27T18:07:45.591Z,15.40
2019-02-27T18:10:14.412Z,15.30
2019-02-27T18:12:43.084Z,15.20
2019-02-27T18:15:13.290Z,15.10
2019-02-27T18:17:41.979Z,15.00
2019-02-27T18:20:10.819Z,14.90
2019-02-27T18:22:39.790Z,14.80
2019-02-27T18:25:10.136Z,14.70
2019-02-27T18:27:38.918Z,14.60
2019-02-27T18:30:08.993Z,14.50
2019-02-27T18:32:40.053Z,14.50
2019-02-27T18:35:08.353Z,14.50
2019-02-27T18:37:37.216Z,14.40
2019-02-27T18:40:08.368Z,14.30
2019-02-27T18:42:37.358Z,14.30
2019-02-27T18:45:06.889Z,14.20
2019-02-27T18:47:35.898Z,14.20
2019-02-27T18:50:05.048Z,14.20
2019-02-27T18:52:33.795Z,14.10
2019-02-27T18:55:02.727Z,14.00
2019-02-27T18:57:31.396Z,14.00
2019-02-27T19:00:01.432Z,13.90
2019-02-27T19:02:30.472Z,13.90
2019-02-27T19:04:59.116Z,13.80
2019-02-27T19:07:27.839Z,13.70
2019-02-27T19:09:56.577Z,13.70
2019-02-27T19:12:28.501Z,13.60
2019-02-27T19:14:55.603Z,13.60
2019-02-27T19:17:29.031Z,13.60
2019-02-27T19:19:54.943Z,13.50
2019-02-27T19:22:23.746Z,13.50
2019-02-27T19:24:52.445Z,13.40
2019-02-27T19:27:21.320Z,13.40
2019-02-27T19:29:49.954Z,13.40
2019-02-27T19:32:18.853Z,13.30
2019-02-27T19:34:48.148Z,13.30
2019-02-27T19:37:17.064Z,13.30
2019-02-27T19:39:45.780Z,13.30
2019-02-27T19:42:16.185Z,13.20
2019-02-27T19:44:45.280Z,13.30
2019-02-27T19:47:13.958Z,13.20
2019-02-27T19:49:43.971Z,13.30
2019-02-27T19:52:12.709Z,13.20
2019-02-27T19:54:41.497Z,13.20
2019-02-27T19:57:10.383Z,13.10
2019-02-27T19:59:39.637Z,13.40
2019-02-27T20:02:08.788Z,13.40
2019-02-27T20:04:42.882Z,13.40
2019-02-27T20:07:08.260Z,13.30
2019-02-27T20:09:36.937Z,13.40
2019-02-27T20:12:05.695Z,13.30
2019-02-27T20:14:36.798Z,13.10
2019-02-27T20:17:04.926Z,12.90
2019-02-27T20:19:33.943Z,12.80
2019-02-27T20:22:02.764Z,12.70
2019-02-27T20:24:32.447Z,12.60
2019-02-27T20:27:02.382Z,12.50
2019-02-27T20:29:31.171Z,12.50
2019-02-27T20:32:01.724Z,12.40
2019-02-27T20:34:30.224Z,12.30
2019-02-27T20:36:58.907Z,12.30
2019-02-27T20:39:27.656Z,12.20
2019-02-27T20:41:56.360Z,12.20
2019-02-27T20:44:25.038Z,12.20
2019-02-27T20:46:53.698Z,12.10
2019-02-27T20:49:22.392Z,12.10
2019-02-27T20:51:51.060Z,12.10
2019-02-27T20:54:20.100Z,12.00
2019-02-27T20:56:55.321Z,12.00
2019-02-27T20:59:19.160Z,12.00
2019-02-27T21:01:47.995Z,12.00
2019-02-27T21:04:16.747Z,12.00
2019-02-27T21:06:47.895Z,12.00
2019-02-27T21:09:15.966Z,12.00
2019-02-27T21:11:44.673Z,12.00
2019-02-27T21:14:13.338Z,12.00
2019-02-27T21:16:45.525Z,12.10
2019-02-27T21:19:13.479Z,12.20
2019-02-27T21:21:42.122Z,12.20
2019-02-27T21:24:10.775Z,12.20
2019-02-27T21:26:39.436Z,12.20
2019-02-27T21:29:08.631Z,12.10
2019-02-27T21:31:38.447Z,12.10
2019-02-27T21:34:07.105Z,12.50
2019-02-27T21:36:36.677Z,12.60
2019-02-27T21:39:06.830Z,12.60
2019-02-27T21:41:35.575Z,12.60
2019-02-27T21:44:05.699Z,12.50
2019-02-27T21:46:34.544Z,12.40
2019-02-27T21:49:03.663Z,12.30
2019-02-27T21:51:32.367Z,12.20
2019-02-27T21:54:04.022Z,12.30
2019-02-27T21:56:31.635Z,12.30
2019-02-27T21:59:00.380Z,12.40
2019-02-27T22:01:29.229Z,12.40
2019-02-27T22:03:58.251Z,12.40
2019-02-27T22:06:28.059Z,12.40
2019-02-27T22:08:56.983Z,12.50
2019-02-27T22:11:27.037Z,12.50
2019-02-27T22:13:56.098Z,12.50
2019-02-27T22:16:29.588Z,12.60
2019-02-27T22:18:55.226Z,12.50
2019-02-27T22:21:23.944Z,12.60
2019-02-27T22:23:52.800Z,12.60
2019-02-27T22:26:21.520Z,12.60
2019-02-27T22:28:51.098Z,12.60
2019-02-27T22:31:20.705Z,12.60
2019-02-27T22:33:49.472Z,12.50
2019-02-27T22:36:18.112Z,12.50
2019-02-27T22:38:46.919Z,12.40
2019-02-27T22:41:15.603Z,12.40
2019-02-27T22:43:44.311Z,12.40
2019-02-27T22:46:13.645Z,12.30
2019-02-27T22:48:43.412Z,12.20
2019-02-27T22:51:12.821Z,12.10
2019-02-27T22:53:42.138Z,12.10
2019-02-27T22:56:15.962Z,12.00
2019-02-27T22:58:41.411Z,12.00
2019-02-27T23:01:19.186Z,11.90
2019-02-27T23:04:08.298Z,11.80
2019-02-27T23:06:37.167Z,11.80
2019-02-27T23:09:09.247Z,11.70
2019-02-27T23:11:39.667Z,11.70
2019-02-27T23:14:09.007Z,11.70
2019-02-27T23:16:37.743Z,11.60
2019-02-27T23:19:06.513Z,11.60
2019-02-27T23:21:35.160Z,11.60
2019-02-27T23:24:04.220Z,11.50
2019-02-27T23:26:33.137Z,11.40
2019-02-27T23:29:01.912Z,11.40
2019-02-27T23:31:30.669Z,11.30
2019-02-27T23:33:59.433Z,11.20
2019-02-27T23:36:28.093Z,11.50
2019-02-27T23:38:56.724Z,12.10
2019-02-27T23:41:25.358Z,12.70
2019-02-27T23:43:54.276Z,12.40
2019-02-27T23:46:22.956Z,12.10
2019-02-27T23:48:51.698Z,11.80
2019-02-27T23:51:20.340Z,11.70
2019-02-27T23:53:48.999Z,11.60
2019-02-27T23:56:20.274Z,11.50
2019-02-27T23:58:48.162Z,11.40
